createdAt,value
2019-05-09T00:01:14.196Z,57.00
2019-05-09T00:03:44.359Z,56.80
2019-05-09T00:06:13.767Z,56.70
2019-05-09T00:08:44.230Z,57.00
2019-05-09T00:11:14.463Z,56.60
2019-05-09T00:13:43.519Z,57.40
2019-05-09T00:16:14.242Z,57.00
2019-05-09T00:18:44.070Z,56.80
2019-05-09T00:21:14.534Z,57.20
2019-05-09T00:23:43.704Z,56.30
2019-05-09T00:26:13.404Z,56.90
2019-05-09T00:28:44.146Z,56.70
2019-05-09T00:31:14.641Z,56.20
2019-05-09T00:33:47.940Z,56.20
2019-05-09T00:36:14.917Z,55.90
2019-05-09T00:38:45.178Z,55.70
2019-05-09T00:41:14.224Z,56.00
2019-05-09T00:43:47.108Z,56.40
2019-05-09T00:46:26.096Z,56.50
2019-05-09T00:48:59.234Z,57.00
2019-05-09T00:51:27.758Z,57.10
2019-05-09T00:53:56.637Z,57.20
2019-05-09T00:56:25.089Z,56.50
2019-05-09T00:58:53.793Z,56.50
2019-05-09T01:01:23.975Z,56.40
2019-05-09T01:03:53.682Z,56.20
2019-05-09T01:06:23.999Z,56.60
2019-05-09T01:08:53.660Z,56.70
2019-05-09T01:11:24.228Z,56.80
2019-05-09T01:13:54.368Z,56.70
2019-05-09T03:16:33.438Z,58.60
2019-05-09T03:19:01.984Z,58.30
2019-05-09T03:21:32.079Z,58.20
2019-05-09T03:24:00.538Z,56.90
2019-05-09T03:26:30.707Z,56.70
2019-05-09T03:29:03.712Z,56.60
2019-05-09T03:31:33.812Z,56.10
2019-05-09T03:34:02.298Z,55.90
2019-05-09T03:36:30.826Z,56.00
2019-05-09T03:38:59.707Z,55.80
2019-05-09T03:41:28.423Z,55.40
2019-05-09T03:43:58.615Z,54.40
2019-05-09T03:46:47.443Z,54.40
2019-05-09T03:49:18.020Z,54.50
2019-05-09T03:51:48.240Z,54.80
2019-05-09T03:54:18.414Z,54.40
2019-05-09T03:56:51.459Z,54.60
2019-05-09T03:59:19.925Z,54.40
2019-05-09T04:01:50.292Z,53.50
2019-05-09T04:04:19.595Z,53.60
2019-05-09T04:06:48.290Z,53.70
2019-05-09T04:09:17.973Z,53.60
2019-05-09T04:11:48.525Z,53.50
2019-05-09T04:14:21.761Z,53.60
2019-05-09T04:16:50.308Z,53.20
2019-05-09T04:19:18.850Z,53.50
2019-05-09T04:21:48.399Z,53.40
2019-05-09T04:24:17.698Z,53.30
2019-05-09T04:26:53.857Z,53.50
2019-05-09T04:29:22.389Z,53.70
2019-05-09T04:31:50.833Z,53.60
2019-05-09T04:34:19.305Z,53.50
2019-05-09T04:36:48.353Z,53.50
2019-05-09T04:39:23.416Z,53.30
2019-05-09T04:41:48.775Z,53.70
2019-05-09T04:44:21.632Z,53.50
2019-05-09T04:46:49.298Z,53.40
2019-05-09T04:49:19.063Z,53.10
2019-05-09T04:51:48.066Z,53.20
2019-05-09T04:54:17.766Z,53.50
2019-05-09T04:56:47.429Z,53.40
2019-05-09T04:59:17.900Z,53.60
2019-05-09T05:01:48.325Z,53.40
2019-05-09T05:04:18.084Z,53.20
2019-05-09T05:06:47.822Z,52.80
2019-05-09T05:09:20.915Z,53.40
2019-05-09T05:11:49.067Z,53.30
2019-05-09T05:14:22.997Z,53.00
2019-05-09T05:16:54.947Z,52.80
2019-05-09T05:19:24.633Z,52.50
2019-05-09T05:21:53.512Z,52.20
2019-05-09T05:24:29.461Z,51.20
2019-05-09T05:26:58.259Z,51.30
2019-05-09T05:29:28.153Z,50.60
2019-05-09T05:31:58.509Z,50.40
2019-05-09T05:34:28.716Z,49.90
2019-05-09T05:36:58.232Z,50.10
2019-05-09T05:39:28.390Z,48.30
2019-05-09T05:41:57.865Z,47.90
2019-05-09T05:44:28.333Z,47.00
2019-05-09T05:47:04.870Z,45.90
2019-05-09T05:49:34.658Z,45.90
2019-05-09T05:52:03.132Z,44.10
2019-05-09T05:54:32.689Z,42.60
2019-05-09T05:57:01.550Z,41.40
2019-05-09T05:59:31.268Z,40.20
2019-05-09T06:01:59.725Z,39.40
2019-05-09T06:04:28.190Z,39.10
2019-05-09T06:06:58.658Z,38.60
2019-05-09T06:09:28.034Z,36.80
2019-05-09T06:11:57.742Z,36.60
2019-05-09T06:14:28.394Z,36.30
2019-05-09T06:16:58.817Z,34.80
2019-05-09T06:19:28.616Z,34.40
2019-05-09T06:21:57.467Z,34.40
2019-05-09T06:24:28.239Z,34.30
2019-05-09T06:26:58.403Z,33.80
2019-05-09T06:29:28.614Z,33.20
2019-05-09T06:31:58.472Z,33.10
2019-05-09T06:34:27.783Z,31.50
2019-05-09T06:36:58.508Z,31.00
2019-05-09T06:39:28.525Z,30.60
2019-05-09T06:41:57.916Z,30.60
2019-05-09T06:44:30.748Z,30.60
2019-05-09T06:47:03.667Z,29.90
2019-05-09T06:49:33.835Z,30.20
2019-05-09T06:52:02.303Z,29.80
2019-05-09T06:54:31.074Z,28.90
2019-05-09T06:56:59.577Z,29.20
2019-05-09T06:59:28.440Z,28.50
2019-05-09T07:01:58.707Z,29.20
2019-05-09T07:04:31.309Z,28.10
2019-05-09T07:07:17.692Z,27.70
2019-05-09T07:09:48.124Z,27.50
2019-05-09T07:12:18.110Z,26.60
2019-05-09T07:14:48.626Z,27.40
2019-05-09T07:17:18.333Z,27.40
2019-05-09T07:19:48.883Z,27.10
2019-05-09T07:22:19.068Z,27.30
2019-05-09T07:25:07.638Z,25.80
2019-05-09T07:27:36.026Z,25.40
2019-05-09T07:30:08.466Z,25.80
2019-05-09T07:32:44.559Z,25.40
2019-05-09T07:35:13.450Z,25.50
2019-05-09T07:37:42.047Z,24.90
2019-05-09T07:40:10.903Z,24.70
2019-05-09T07:42:39.712Z,24.00
2019-05-09T07:45:08.925Z,24.30
2019-05-09T07:47:38.761Z,23.70
2019-05-09T07:50:08.678Z,23.50
2019-05-09T07:52:38.833Z,23.20
2019-05-09T07:55:08.822Z,22.50
2019-05-09T07:57:45.791Z,22.70
2019-05-09T08:00:08.853Z,22.70
2019-05-09T08:02:38.662Z,23.00
2019-05-09T08:05:08.657Z,22.70
2019-05-09T08:07:38.122Z,23.00
2019-05-09T08:10:10.873Z,22.40
2019-05-09T08:12:38.977Z,22.20
2019-05-09T08:15:16.204Z,22.30
2019-05-09T08:17:38.381Z,22.70
2019-05-09T08:20:08.124Z,22.20
2019-05-09T08:22:42.169Z,22.30
2019-05-09T08:25:08.265Z,23.20
2019-05-09T08:27:37.853Z,23.00
2019-05-09T08:30:07.888Z,23.50
2019-05-09T08:32:37.779Z,23.60
2019-05-09T08:35:08.284Z,23.50
2019-05-09T08:37:39.032Z,23.90
2019-05-09T08:40:08.045Z,23.70
2019-05-09T08:42:37.870Z,23.30
2019-05-09T08:45:17.335Z,22.90
2019-05-09T08:47:38.077Z,23.10
2019-05-09T08:50:09.736Z,23.40
2019-05-09T08:52:38.257Z,23.20
2019-05-09T08:55:08.482Z,22.90
2019-05-09T08:57:37.583Z,22.60
2019-05-09T09:00:11.103Z,22.20
2019-05-09T09:02:39.624Z,22.30
2019-05-09T09:05:08.820Z,22.30
2019-05-09T09:07:38.053Z,21.90
2019-05-09T09:10:08.495Z,20.90
2019-05-09T09:12:38.343Z,21.40
2019-05-09T09:15:07.886Z,21.10
2019-05-09T09:17:38.595Z,21.50
2019-05-09T09:20:08.007Z,20.80
2019-05-09T09:22:37.601Z,21.20
2019-05-09T09:25:07.804Z,21.00
2019-05-09T09:27:38.112Z,21.80
2019-05-09T09:30:17.689Z,22.10
2019-05-09T09:32:38.768Z,22.70
2019-05-09T09:35:08.133Z,23.10
2019-05-09T09:37:47.766Z,23.00
2019-05-09T09:40:10.526Z,23.40
2019-05-09T09:42:39.828Z,23.50
2019-05-09T09:45:08.662Z,23.00
2019-05-09T09:47:39.360Z,23.30
2019-05-09T09:50:08.811Z,23.70
2019-05-09T09:52:38.518Z,24.30
2019-05-09T09:55:08.976Z,24.20
2019-05-09T09:57:37.845Z,24.20
2019-05-09T10:00:27.583Z,24.50
2019-05-09T10:02:58.555Z,24.10
2019-05-09T10:05:27.806Z,24.60
2019-05-09T10:07:58.214Z,24.90
2019-05-09T10:10:35.215Z,25.40
2019-05-09T10:13:04.437Z,25.70
2019-05-09T10:15:43.401Z,26.00
2019-05-09T10:18:18.292Z,27.10
2019-05-09T10:20:50.867Z,28.70
2019-05-09T10:23:21.615Z,29.10
2019-05-09T10:25:49.787Z,31.90
2019-05-09T10:28:21.424Z,34.10
2019-05-09T10:30:48.563Z,35.70
2019-05-09T10:33:17.644Z,40.00
2019-05-09T10:35:47.941Z,41.90
2019-05-09T10:38:18.468Z,44.10
2019-05-09T10:40:48.583Z,45.80
2019-05-09T10:43:35.729Z,47.10
2019-05-09T10:46:19.092Z,44.00
2019-05-09T10:48:47.971Z,46.00
2019-05-09T10:51:18.515Z,43.60
2019-05-09T10:53:48.154Z,45.80
2019-05-09T10:56:18.710Z,45.90
2019-05-09T10:58:48.249Z,46.40
2019-05-09T11:01:18.544Z,45.00
2019-05-09T11:03:48.247Z,48.50
2019-05-09T11:06:18.382Z,47.50
2019-05-09T11:08:47.799Z,44.80
2019-05-09T11:11:18.294Z,45.00
2019-05-09T11:13:48.187Z,43.90
2019-05-09T11:16:18.306Z,43.70
2019-05-09T11:18:48.327Z,43.80
2019-05-09T11:21:19.328Z,45.10
2019-05-09T11:23:48.857Z,41.90
2019-05-09T11:26:18.036Z,44.80
2019-05-09T11:28:46.873Z,40.70
2019-05-09T11:31:18.039Z,39.40
2019-05-09T11:33:48.118Z,40.20
2019-05-09T11:36:20.728Z,38.50
2019-05-09T11:38:48.993Z,38.80
2019-05-09T11:41:18.904Z,38.70
2019-05-09T11:43:48.444Z,36.80
2019-05-09T11:46:18.036Z,36.80
2019-05-09T11:48:47.008Z,36.90
2019-05-09T11:51:17.892Z,36.30
2019-05-09T11:53:48.319Z,34.30
2019-05-09T11:56:18.011Z,34.20
2019-05-09T11:58:48.120Z,33.90
2019-05-09T12:01:18.594Z,32.90
2019-05-09T12:03:49.863Z,32.40
2019-05-09T12:06:19.666Z,31.10
2019-05-09T12:08:48.357Z,30.70
2019-05-09T12:11:18.173Z,30.80
2019-05-09T12:13:48.586Z,30.00
2019-05-09T12:16:18.402Z,29.30
2019-05-09T12:18:48.791Z,29.60
2019-05-09T12:21:19.237Z,28.10
2019-05-09T12:23:48.813Z,28.60
2019-05-09T12:26:18.052Z,29.10
2019-05-09T12:28:48.385Z,28.10
2019-05-09T12:31:18.104Z,27.20
2019-05-09T12:33:48.267Z,26.90
2019-05-09T12:36:19.086Z,26.20
2019-05-09T12:38:49.713Z,26.60
2019-05-09T12:41:19.027Z,26.50
2019-05-09T12:43:48.124Z,26.60
2019-05-09T12:46:16.540Z,27.20
2019-05-09T12:48:47.959Z,27.30
2019-05-09T12:51:18.141Z,27.20
2019-05-09T12:53:48.179Z,27.70
2019-05-09T12:56:18.503Z,27.00
2019-05-09T12:58:48.919Z,27.80
2019-05-09T13:01:18.804Z,27.30
2019-05-09T13:03:48.499Z,27.30
2019-05-09T13:06:20.226Z,27.30
2019-05-09T13:08:48.143Z,27.30
2019-05-09T13:11:18.584Z,27.20
2019-05-09T13:13:48.041Z,27.10
2019-05-09T13:16:18.269Z,27.50
2019-05-09T13:19:04.524Z,27.50
2019-05-09T13:21:33.349Z,27.50
2019-05-09T13:24:02.250Z,28.20
2019-05-09T13:26:30.938Z,28.10
2019-05-09T13:28:59.443Z,27.80
2019-05-09T13:31:29.551Z,28.00
2019-05-09T13:33:58.618Z,28.00
2019-05-09T13:36:28.373Z,28.10
2019-05-09T13:39:04.350Z,28.00
2019-05-09T13:41:27.481Z,28.80
2019-05-09T13:43:59.056Z,30.10
2019-05-09T13:46:28.244Z,31.80
2019-05-09T13:49:08.315Z,34.20
2019-05-09T13:51:26.374Z,36.90
2019-05-09T13:53:54.782Z,38.10
2019-05-09T13:56:23.242Z,39.80
2019-05-09T13:58:51.656Z,41.00
2019-05-09T14:01:20.122Z,40.80
2019-05-09T14:03:49.216Z,41.70
2019-05-09T14:06:17.822Z,40.10
2019-05-09T14:08:48.978Z,40.20
2019-05-09T14:11:19.069Z,38.50
2019-05-09T14:13:48.779Z,38.80
2019-05-09T14:16:22.083Z,36.80
2019-05-09T14:18:48.634Z,37.10
2019-05-09T14:21:21.570Z,34.80
2019-05-09T14:24:00.780Z,35.40
2019-05-09T14:26:18.108Z,34.50
2019-05-09T14:28:48.892Z,34.40
2019-05-09T14:31:18.695Z,34.40
2019-05-09T14:33:47.863Z,34.30
2019-05-09T14:36:16.454Z,33.80
2019-05-09T14:38:44.921Z,32.50
2019-05-09T14:41:13.400Z,33.00
2019-05-09T14:43:41.805Z,33.10
2019-05-09T14:46:10.215Z,33.10
2019-05-09T14:48:38.907Z,32.50
2019-05-09T14:51:07.768Z,31.40
2019-05-09T14:53:38.873Z,31.60
2019-05-09T14:56:08.718Z,31.50
2019-05-09T14:58:38.722Z,31.40
2019-05-09T15:01:08.679Z,31.40
2019-05-09T15:03:38.934Z,31.60
2019-05-09T15:06:07.647Z,32.00
2019-05-09T15:08:38.210Z,32.10
2019-05-09T15:11:09.852Z,31.20
2019-05-09T15:13:36.511Z,33.30
2019-05-09T15:16:04.930Z,38.80
2019-05-09T15:18:33.329Z,42.60
2019-05-09T15:21:01.771Z,44.10
2019-05-09T15:23:30.178Z,45.70
2019-05-09T15:25:58.590Z,48.70
2019-05-09T15:28:29.154Z,49.80
2019-05-09T15:30:59.434Z,51.80
2019-05-09T15:33:27.572Z,53.10
2019-05-09T15:35:58.717Z,52.10
2019-05-09T15:38:28.774Z,51.80
2019-05-09T15:40:56.539Z,50.10
2019-05-09T15:43:24.984Z,51.10
2019-05-09T15:45:57.949Z,50.30
2019-05-09T15:48:27.358Z,48.90
2019-05-09T15:50:55.330Z,49.20
2019-05-09T15:53:23.729Z,47.50
2019-05-09T15:55:52.137Z,47.10
2019-05-09T15:58:20.550Z,48.40
2019-05-09T16:00:49.117Z,46.90
2019-05-09T16:03:18.644Z,46.80
2019-05-09T16:05:47.863Z,45.60
2019-05-09T16:08:18.548Z,46.00
2019-05-09T16:10:46.678Z,45.20
2019-05-09T16:13:17.541Z,45.10
2019-05-09T16:15:45.222Z,44.10
2019-05-09T16:18:13.633Z,44.20
2019-05-09T16:20:42.066Z,44.60
2019-05-09T16:23:10.471Z,43.10
2019-05-09T16:25:38.949Z,43.80
2019-05-09T16:28:08.037Z,45.30
2019-05-09T16:30:38.233Z,44.60
2019-05-09T16:33:08.151Z,46.60
2019-05-09T16:35:38.121Z,48.30
2019-05-09T16:38:10.631Z,48.40
2019-05-09T16:40:38.626Z,50.00
2019-05-09T16:43:09.057Z,49.80
2019-05-09T16:45:37.991Z,51.10
2019-05-09T16:48:11.431Z,52.40
2019-05-09T16:50:40.010Z,57.20
2019-05-09T16:53:09.121Z,58.10
2019-05-09T16:55:39.337Z,59.30
2019-05-09T16:58:08.615Z,61.60
2019-05-09T17:00:44.176Z,61.20
2019-05-09T17:03:12.581Z,59.90
2019-05-09T17:05:41.144Z,58.60
2019-05-09T17:08:09.621Z,60.50
2019-05-09T17:10:38.279Z,60.80
2019-05-09T17:13:07.782Z,61.10
2019-05-09T17:15:38.742Z,59.80
2019-05-09T17:18:07.713Z,58.90
2019-05-09T17:20:38.529Z,59.30
2019-05-09T17:23:14.421Z,58.70
2019-05-09T17:25:38.733Z,59.20
2019-05-09T17:28:07.781Z,57.90
2019-05-09T17:30:38.416Z,57.90
2019-05-09T17:33:07.917Z,59.40
2019-05-09T17:35:38.507Z,57.40
2019-05-09T17:38:08.579Z,58.40
2019-05-09T17:40:38.983Z,58.90
2019-05-09T17:43:08.253Z,57.50
2019-05-09T17:45:41.424Z,57.50
2019-05-09T17:48:08.557Z,57.60
2019-05-09T17:50:38.345Z,57.80
2019-05-09T17:53:08.603Z,57.40
2019-05-09T17:55:38.103Z,57.30
2019-05-09T17:58:08.778Z,56.40
2019-05-09T18:00:37.954Z,55.70
2019-05-09T18:03:06.710Z,53.70
2019-05-09T18:05:36.689Z,53.60
2019-05-09T18:08:08.093Z,53.30
2019-05-09T18:10:38.000Z,52.80
2019-05-09T18:13:07.905Z,52.10
2019-05-09T18:15:37.830Z,52.30
2019-05-09T18:18:06.469Z,53.10
2019-05-09T18:20:37.746Z,53.90
2019-05-09T18:23:07.845Z,52.70
2019-05-09T18:25:37.739Z,53.00
2019-05-09T18:28:05.771Z,52.10
2019-05-09T18:30:34.245Z,52.50
2019-05-09T18:33:04.625Z,52.10
2019-05-09T18:35:33.654Z,53.00
2019-05-09T18:38:02.416Z,52.40
2019-05-09T18:40:30.810Z,52.10
2019-05-09T18:42:59.463Z,52.40
2019-05-09T18:45:28.409Z,53.40
2019-05-09T18:47:58.014Z,54.10
2019-05-09T18:50:26.852Z,53.20
2019-05-09T18:52:55.536Z,53.00
2019-05-09T18:55:23.966Z,52.50
2019-05-09T18:57:52.376Z,52.90
2019-05-09T19:00:21.659Z,52.80
2019-05-09T19:02:50.592Z,52.30
2019-05-09T19:05:20.355Z,51.30
2019-05-09T19:07:49.110Z,51.50
2019-05-09T19:10:17.981Z,52.20
2019-05-09T19:12:46.444Z,52.00
2019-05-09T19:15:19.388Z,52.80
2019-05-09T19:17:49.478Z,51.60
2019-05-09T19:20:19.655Z,51.60
2019-05-09T19:22:48.137Z,51.50
2019-05-09T19:25:36.249Z,51.10
2019-05-09T19:28:04.936Z,51.70
2019-05-09T19:30:34.105Z,51.40
2019-05-09T19:33:02.575Z,50.90
2019-05-09T19:35:31.011Z,51.70
2019-05-09T19:37:59.421Z,51.50
2019-05-09T19:40:28.170Z,50.90
2019-05-09T19:42:56.586Z,51.30
2019-05-09T19:45:25.018Z,52.00
2019-05-09T19:47:53.414Z,52.00
2019-05-09T19:50:22.516Z,51.90
2019-05-09T19:52:50.919Z,52.00
2019-05-09T19:55:19.664Z,52.50
2019-05-09T19:57:48.067Z,52.60
2019-05-09T20:00:17.227Z,52.50
2019-05-09T20:02:45.633Z,52.90
2019-05-09T20:05:14.497Z,53.00
2019-05-09T20:07:42.939Z,53.80
2019-05-09T20:10:13.450Z,53.70
2019-05-09T20:12:49.346Z,53.80
2019-05-09T20:15:19.600Z,54.30
2019-05-09T20:17:48.019Z,54.30
2019-05-09T20:20:16.558Z,54.60
2019-05-09T20:22:52.506Z,54.70
2019-05-09T20:25:15.303Z,55.20
2019-05-09T20:27:44.077Z,56.20
2019-05-09T20:30:12.725Z,55.70
2019-05-09T20:32:41.222Z,57.10
2019-05-09T20:35:10.431Z,57.40
2019-05-09T20:37:39.001Z,57.80
2019-05-09T20:40:07.946Z,58.20
2019-05-09T20:42:36.550Z,58.50
2019-05-09T20:45:06.961Z,58.00
2019-05-09T20:47:35.699Z,58.20
2019-05-09T20:50:06.648Z,58.40
2019-05-09T20:52:35.357Z,58.40
2019-05-09T20:55:08.307Z,58.80
2019-05-09T20:57:36.918Z,58.80
2019-05-09T21:00:10.082Z,58.90
2019-05-09T21:02:38.724Z,58.40
2019-05-09T21:05:09.513Z,58.00
2019-05-09T21:07:38.122Z,57.70
2019-05-09T21:10:06.857Z,57.20
2019-05-09T21:12:35.529Z,56.90
2019-05-09T21:15:07.706Z,57.30
2019-05-09T21:17:36.318Z,57.80
2019-05-09T21:20:07.202Z,58.30
2019-05-09T21:22:35.848Z,59.20
2019-05-09T21:25:07.291Z,58.80
2019-05-09T21:27:35.961Z,58.80
2019-05-09T21:30:06.874Z,58.90
2019-05-09T21:32:36.057Z,59.40
2019-05-09T21:35:05.504Z,59.30
2019-05-09T21:37:33.958Z,60.00
2019-05-09T21:40:02.366Z,60.10
2019-05-09T21:42:31.129Z,60.30
2019-05-09T21:44:59.526Z,60.70
2019-05-09T21:47:27.977Z,59.90
2019-05-09T21:49:56.391Z,59.10
2019-05-09T21:52:24.803Z,59.30
2019-05-09T21:54:53.655Z,59.40
2019-05-09T21:57:22.210Z,59.60
2019-05-09T21:59:50.640Z,60.50
2019-05-09T22:02:19.207Z,60.00
2019-05-09T22:04:47.628Z,59.40
2019-05-09T22:07:16.074Z,59.00
2019-05-09T22:09:44.943Z,58.80
2019-05-09T22:12:13.436Z,59.20
2019-05-09T22:14:41.847Z,59.30
2019-05-09T22:17:14.875Z,59.20
2019-05-09T22:19:43.535Z,59.30
2019-05-09T22:22:11.950Z,59.30
2019-05-09T22:24:41.690Z,58.70
2019-05-09T22:27:11.055Z,58.70
2019-05-09T22:29:39.462Z,58.10
2019-05-09T22:32:08.254Z,57.50
2019-05-09T22:34:36.650Z,57.50
2019-05-09T22:37:05.070Z,57.60
2019-05-09T22:39:33.489Z,57.90
2019-05-09T22:42:01.886Z,58.50
2019-05-09T22:44:30.379Z,58.50
2019-05-09T22:46:58.833Z,59.30
2019-05-09T22:49:27.369Z,58.60
2019-05-09T22:51:55.794Z,58.50
2019-05-09T22:54:24.270Z,58.50
2019-05-09T22:56:52.709Z,58.40
2019-05-09T22:59:21.109Z,58.10
2019-05-09T23:01:49.513Z,57.80
2019-05-09T23:04:17.957Z,57.40
2019-05-09T23:06:46.366Z,57.40
2019-05-09T23:09:14.777Z,57.70
2019-05-09T23:11:43.199Z,57.90
2019-05-09T23:14:11.625Z,58.30
2019-05-09T23:16:40.998Z,58.00
2019-05-09T23:19:09.413Z,58.00
2019-05-09T23:21:37.929Z,58.70
2019-05-09T23:24:07.982Z,58.90
2019-05-09T23:26:36.393Z,58.50
2019-05-09T23:29:04.980Z,58.30
2019-05-09T23:31:37.838Z,58.50
2019-05-09T23:34:06.283Z,58.90
2019-05-09T23:36:34.693Z,58.90
2019-05-09T23:39:10.950Z,59.20
2019-05-09T23:41:39.362Z,59.30
2019-05-09T23:44:07.778Z,59.50
2019-05-09T23:46:36.280Z,59.90
2019-05-09T23:49:05.240Z,61.50
2019-05-09T23:51:49.415Z,63.10
2019-05-09T23:54:46.480Z,65.40
2019-05-09T23:57:28.949Z,66.90
